LFLL/LYS METAR and TAF weather

Enter ICAO airport designator
Station Type Date Time Source
LFLL METAR 2019/08/24 18:30 UTC NOAA

LFLL 241830Z 06005KT CAVOK 27/15 Q1017 NOSIG


Station Type Date Time Source
LFLL Decoded METAR 2019/08/24 18:30 UTC NOAA

Station name not available
Aug 24, 2019 - 02:30 PM EDT / 2019.08.24 1830 UTC
Wind: from the ENE (060 degrees) at 6 MPH (5 KT):0
Visibility: greater than 7 mile(s):0
Temperature: 80 F (27 C)
Dew Point: 59 F (15 C)
Relative Humidity: 47%
Pressure (altimeter): 30.03 in. Hg (1017 hPa)
ob: LFLL 241830Z 06005KT CAVOK 27/15 Q1017 NOSIG
cycle: 18

Station Type Date Time Source
LFLL TAF 2019/08/24 18:21 UTC NOAA

TAF LFLL 241700Z 2418/2524 05005KT CAVOK
TEMPO 2423/2509 15005KT

Example: see airport list